New Effington, SD (57255)

7:26 AM CDT on September 05, 2015 (GMT -0500)
joes ag supply | | Change Station
CLOSE
Current Station
Personal Weather Station
Location: Lidgerwood, ND
Elevation: 1106 ft
Nearby Weather Stations

Elev 1106 ft 46.07 °N, 97.15 °W | Updated 1 minute ago

Fog
Fog
72.1 °F
Feels Like 72.1 °F
N
4.0
Wind Variable Wind from SE
Gusts 4.9 mph

Today
High -- | Low -- °F
--% Chance of Precip.
Yesterday
High -- | Low -- °F
Precip. -- in
6:53 AM 7:58 PM
Waning Gibbous, 49% visible
Pressure 29.85 in
Visibility 1.8 miles
Clouds
Dew Point 71 °F
Humidity 96%
Rainfall 0.00 in
Snow Depth Not available.
UV 0.0 out of 12
Pollen 7.20 out of 12
Air Quality Not available.
Flu Activity Not available.
METAR KETH 051215Z AUTO 12006KT 1 3/4SM BR VV007 18/18 A2985 RMK AO2 LTG DSNT E
Pressure 29.85 in
Visibility 1.8 miles
Clouds
Dew Point 71 °F
Humidity 96%
Rainfall 0.00 in
Snow Depth Not available.
UV 0.0 out of 12
Pollen 7.20 out of 12
Air Quality Not available.
Flu Activity Not available.
METAR KETH 051215Z AUTO 12006KT 1 3/4SM BR VV007 18/18 A2985 RMK AO2 LTG DSNT E

10-Day Weather Forecast

×

Almanac

Astronomy

Sep. 05, 2015 Rise Set
Actual Time
Civil Twilight
Nautical Twilight
Astronomical Twilight
Moon
Length of Visible Light
Length of Day
Tomorrow will be .
, % of the Moon is Illuminated

Today's Extremes

State Highs State Lows

Community

WunderPhotos

Upload Photos

1,852,455 photos uploaded!

WunderBlogs® & News

Nearby

Air Quality

  Air Quality AQ Index Pollutant
Not available.

Snow Depth

Station Depth Elevation

Earthquake Activity

City Distance Mag. Time & Date
Minimum magnitude displayed is 2.5.

Coastal Water Temperatures

Place Temperature

Stations

Nearby Weather Stations

Station Location Temp. Windchill Dew Point Humidity Wind Precip. Elev Updated Type